Time;durP1;ratioP1;P1;durP2;ratioP2;P2;SDS_P1;SDS_P2;PMS_P1;PMS_P2;Temp;Humidity;BMP_temperature;BMP_pressure;BME280_temperature;BME280_humidity;BME280_pressure;Samples;Min_cycle;Max_cycle;Signal;HPM_P1;HPM_P2
2023/08/09 00:01:37;;;;;;;;;7.00;7.00;;;;;21.18;50.45;100423.41;110293;1251;20706;-40
2023/08/09 00:04:04;;;;;;;;;7.00;7.00;;;;;21.18;50.25;100433.05;110262;1250;18514;-40
2023/08/09 00:06:30;;;;;;;;;8.00;8.00;;;;;21.18;50.46;100431.27;110243;1265;19358;-40
2023/08/09 00:08:56;;;;;;;;;10.00;8.50;;;;;21.15;50.26;100431.70;110273;1251;19428;-40
2023/08/09 00:11:22;;;;;;;;;7.50;7.50;;;;;21.15;50.30;100434.38;110287;1257;20093;-40
2023/08/09 00:13:48;;;;;;;;;7.00;7.00;;;;;21.15;50.42;100433.02;110249;1251;20418;-40
2023/08/09 00:16:14;;;;;;;;;7.00;7.00;;;;;21.15;50.26;100433.61;110267;1257;22623;-38
2023/08/09 00:18:40;;;;;;;;;8.00;7.50;;;;;21.14;50.47;100437.54;110269;1265;22690;-40
2023/08/09 00:21:06;;;;;;;;;8.00;7.00;;;;;21.14;50.22;100433.95;110267;1251;22763;-40
2023/08/09 00:23:31;;;;;;;;;5.00;5.00;;;;;21.14;50.11;100435.30;110272;1265;20169;-40
2023/08/09 00:25:57;;;;;;;;;7.00;7.00;;;;;21.14;50.13;100436.39;110286;1265;18422;-40
2023/08/09 00:28:23;;;;;;;;;8.00;7.50;;;;;21.14;50.08;100441.19;110273;1249;19092;-40
2023/08/09 00:30:49;;;;;;;;;7.00;7.00;;;;;21.14;50.11;100437.66;110278;1251;19368;-40
2023/08/09 00:33:15;;;;;;;;;7.50;7.00;;;;;21.15;49.94;100434.00;110296;1265;18383;-40
2023/08/09 00:35:41;;;;;;;;;5.00;5.00;;;;;21.13;50.19;100433.80;110285;1251;20528;-40
2023/08/09 00:38:07;;;;;;;;;6.00;6.00;;;;;21.12;49.88;100436.79;110278;1251;19476;-40
2023/08/09 00:40:33;;;;;;;;;7.00;5.00;;;;;21.13;50.02;100432.27;110265;1249;22686;-39
2023/08/09 00:42:59;;;;;;;;;5.00;5.00;;;;;21.11;50.09;100431.40;110223;1251;20507;-38
2023/08/09 00:45:25;;;;;;;;;5.00;5.00;;;;;21.09;50.07;100432.17;110316;1265;19352;-39
2023/08/09 00:47:52;;;;;;;;;5.00;5.00;;;;;21.08;49.84;100434.52;110298;1265;18359;-39
2023/08/09 00:50:18;;;;;;;;;8.00;7.00;;;;;21.06;49.83;100427.73;110300;1265;19500;-39
2023/08/09 00:52:44;;;;;;;;;5.00;4.00;;;;;21.05;50.18;100423.10;110230;1265;18180;-40
2023/08/09 00:55:10;;;;;;;;;7.50;7.50;;;;;21.02;49.98;100424.36;110256;1265;22703;-40
2023/08/09 00:57:36;;;;;;;;;5.00;5.00;;;;;21.01;49.85;100424.25;110296;1250;22107;-40
2023/08/09 01:00:04;;;;;;;;;7.50;6.50;;;;;21.04;49.70;100429.25;110256;1257;23362;-40
2023/08/09 01:02:30;;;;;;;;;5.00;5.00;;;;;21.05;49.83;100430.30;110273;1257;20050;-40
2023/08/09 01:04:57;;;;;;;;;5.00;4.00;;;;;21.01;49.94;100430.95;110273;1251;20675;-40
2023/08/09 01:07:23;;;;;;;;;5.00;5.00;;;;;21.01;49.75;100426.00;110254;1251;22065;-40
2023/08/09 01:09:49;;;;;;;;;5.00;4.00;;;;;21.01;49.71;100428.67;110306;1251;20359;-40
2023/08/09 01:12:15;;;;;;;;;5.00;5.00;;;;;21.01;49.74;100433.84;110268;1250;19120;-39
2023/08/09 01:14:41;;;;;;;;;5.00;5.00;;;;;20.99;49.85;100430.81;110269;1257;19509;-40
2023/08/09 01:17:06;;;;;;;;;4.00;4.00;;;;;20.97;49.90;100436.47;110271;1250;20087;-40
2023/08/09 01:19:32;;;;;;;;;4.00;4.00;;;;;20.94;49.98;100435.95;110266;1250;20492;-40
2023/08/09 01:21:58;;;;;;;;;7.00;5.00;;;;;20.92;49.96;100437.59;110281;1251;19441;-40
2023/08/09 01:24:24;;;;;;;;;7.00;5.00;;;;;20.95;49.95;100441.66;110299;1249;19822;-40
2023/08/09 01:26:50;;;;;;;;;4.50;4.50;;;;;20.94;49.87;100439.86;110298;1251;20551;-40
2023/08/09 01:29:16;;;;;;;;;5.00;4.00;;;;;20.91;49.90;100439.94;110272;1249;19378;-39
2023/08/09 01:31:42;;;;;;;;;5.00;4.00;;;;;20.87;49.84;100438.70;110276;1265;19719;-39
2023/08/09 01:34:08;;;;;;;;;4.00;4.00;;;;;20.90;49.90;100441.19;110272;1251;20757;-40
2023/08/09 01:36:34;;;;;;;;;5.00;5.00;;;;;20.92;49.68;100439.27;110314;1251;19448;-40
2023/08/09 01:39:00;;;;;;;;;4.50;4.50;;;;;20.92;49.72;100441.50;110299;1257;19940;-40
2023/08/09 01:41:26;;;;;;;;;5.00;5.00;;;;;20.93;49.78;100443.63;110280;1251;20584;-40
2023/08/09 01:43:52;;;;;;;;;5.00;5.00;;;;;20.91;49.75;100433.34;110287;1265;19542;-40
2023/08/09 01:46:18;;;;;;;;;5.00;5.00;;;;;20.90;49.86;100429.81;110287;1249;18520;-39
2023/08/09 01:48:44;;;;;;;;;4.00;4.00;;;;;20.87;49.90;100426.72;110260;1265;22324;-39
2023/08/09 01:51:10;;;;;;;;;4.00;4.00;;;;;20.88;49.72;100430.09;110280;1249;20519;-39
2023/08/09 01:53:36;;;;;;;;;5.00;5.00;;;;;20.86;49.85;100428.80;110285;1251;19858;-40
2023/08/09 01:56:02;;;;;;;;;5.00;5.00;;;;;20.85;50.00;100433.15;110274;1250;18953;-39
2023/08/09 01:58:28;;;;;;;;;7.00;5.00;;;;;20.84;49.49;100432.17;110256;1265;22552;-40
2023/08/09 02:00:54;;;;;;;;;4.00;4.00;;;;;20.81;49.71;100431.98;110251;1265;22311;-40
2023/08/09 02:03:20;;;;;;;;;5.00;5.00;;;;;20.79;49.90;100436.90;110271;1251;21934;-39
2023/08/09 02:05:46;;;;;;;;;4.00;4.00;;;;;20.75;49.94;100441.33;110255;1251;22315;-40
2023/08/09 02:08:12;;;;;;;;;5.00;5.00;;;;;20.75;49.99;100446.07;110272;1265;22248;-40
2023/08/09 02:10:38;;;;;;;;;4.00;4.00;;;;;20.71;50.06;100446.24;110259;1251;21607;-40
2023/08/09 02:13:04;;;;;;;;;8.00;7.00;;;;;20.64;49.95;100445.39;110270;1265;18199;-39
2023/08/09 02:15:30;;;;;;;;;5.00;5.00;;;;;20.61;50.12;100442.67;110271;1251;19818;-39
2023/08/09 02:17:58;;;;;;;;;5.00;5.00;;;;;20.63;50.05;100443.05;110300;1251;23030;-39
2023/08/09 02:20:24;;;;;;;;;7.00;5.00;;;;;20.70;49.90;100451.25;110261;1265;18466;-39
2023/08/09 02:22:50;;;;;;;;;8.00;7.50;;;;;20.75;49.54;100449.27;110160;1251;19599;-40
2023/08/09 02:25:16;;;;;;;;;7.00;7.00;;;;;20.77;49.74;100452.70;110255;1265;22703;-39
2023/08/09 02:27:42;;;;;;;;;7.50;7.50;;;;;20.80;49.50;100452.03;110277;1265;23141;-40
2023/08/09 02:30:08;;;;;;;;;8.00;8.00;;;;;20.78;49.67;100452.27;110304;1265;18721;-40
2023/08/09 02:32:34;;;;;;;;;7.00;6.33;;;;;20.77;49.49;100455.15;110271;1251;20494;-40
2023/08/09 02:34:59;;;;;;;;;11.00;8.00;;;;;20.75;49.61;100462.29;110292;1251;19633;-40
2023/08/09 02:37:25;;;;;;;;;7.00;7.00;;;;;20.71;49.54;100467.80;110292;1265;22139;-39
2023/08/09 02:39:51;;;;;;;;;9.00;9.00;;;;;20.73;49.64;100474.33;110289;1250;22337;-40
2023/08/09 02:42:17;;;;;;;;;9.50;8.00;;;;;20.74;49.44;100473.33;110279;1250;20555;-39
2023/08/09 02:44:43;;;;;;;;;9.00;9.00;;;;;20.75;49.41;100472.96;110248;1251;23042;-39
2023/08/09 02:47:09;;;;;;;;;9.00;7.50;;;;;20.79;49.32;100475.50;110281;1257;20674;-40
2023/08/09 02:49:35;;;;;;;;;8.00;8.00;;;;;20.79;48.97;100473.01;110270;1265;18185;-39
2023/08/09 02:52:01;;;;;;;;;9.00;8.00;;;;;20.80;49.21;100472.24;110273;1265;18663;-40
2023/08/09 02:54:27;;;;;;;;;9.00;9.00;;;;;20.81;49.20;100478.64;110248;1257;22306;-39
2023/08/09 02:56:53;;;;;;;;;8.50;8.00;;;;;20.75;49.35;100475.41;110223;1250;20892;-39
2023/08/09 02:59:19;;;;;;;;;11.00;8.00;;;;;20.73;49.30;100479.66;110374;1251;19896;-39
2023/08/09 03:01:45;;;;;;;;;9.00;7.00;;;;;20.73;49.31;100483.79;110296;1265;19064;-40
2023/08/09 03:04:11;;;;;;;;;8.00;8.00;;;;;20.73;49.31;100485.80;110256;1265;18588;-41
2023/08/09 03:06:37;;;;;;;;;8.00;8.00;;;;;20.72;49.15;100482.60;110273;1250;19984;-40
2023/08/09 03:09:03;;;;;;;;;8.50;8.50;;;;;20.69;49.02;100482.23;110277;1265;22699;-40
2023/08/09 03:11:29;;;;;;;;;8.00;8.00;;;;;20.56;49.71;100483.23;110286;1265;18357;-40
2023/08/09 03:13:55;;;;;;;;;8.00;8.00;;;;;20.55;49.39;100486.08;110264;1257;22354;-40
2023/08/09 03:16:22;;;;;;;;;8.00;8.00;;;;;20.55;49.41;100490.86;110311;1249;20640;-40
2023/08/09 03:18:48;;;;;;;;;11.00;11.00;;;;;20.56;49.16;100491.89;110280;1265;18423;-40
2023/08/09 03:21:14;;;;;;;;;7.00;7.00;;;;;20.57;49.18;100489.88;110261;1265;22370;-39
2023/08/09 03:23:40;;;;;;;;;8.00;8.00;;;;;20.58;49.02;100492.98;110241;1265;23813;-39
2023/08/09 03:26:06;;;;;;;;;10.00;10.00;;;;;20.57;48.98;100492.98;110265;1257;22853;-39
2023/08/09 03:28:32;;;;;;;;;9.00;9.00;;;;;20.59;48.92;100492.86;110251;1249;22565;-39
2023/08/09 03:30:58;;;;;;;;;11.00;10.00;;;;;20.52;49.25;100491.63;110238;1251;22232;-39
2023/08/09 03:33:23;;;;;;;;;9.00;8.00;;;;;20.44;49.34;100493.27;110250;1251;22274;-39
2023/08/09 03:35:50;;;;;;;;;8.00;8.00;;;;;20.40;49.26;100498.87;110266;1250;19638;-40
2023/08/09 03:38:16;;;;;;;;;10.00;9.33;;;;;20.38;49.42;100498.37;110268;1257;22806;-40
2023/08/09 03:40:42;;;;;;;;;8.00;8.00;;;;;20.36;49.66;100500.70;110289;1265;22479;-40
2023/08/09 03:43:08;;;;;;;;;11.00;10.00;;;;;20.30;49.58;100502.77;110341;1251;22594;-38
2023/08/09 03:45:34;;;;;;;;;7.00;7.00;;;;;20.36;49.32;100497.65;110350;1249;20564;-39
2023/08/09 03:48:00;;;;;;;;;8.00;8.00;;;;;20.34;49.32;100496.02;110348;1265;18371;-39
2023/08/09 03:50:26;;;;;;;;;7.00;7.00;;;;;20.25;49.58;100490.42;110303;1257;19942;-40
2023/08/09 03:52:52;;;;;;;;;10.00;8.00;;;;;20.27;49.52;100491.08;110269;1250;20683;-39
2023/08/09 03:55:18;;;;;;;;;9.00;9.00;;;;;20.37;49.28;100492.71;110275;1257;19317;-39
2023/08/09 03:57:43;;;;;;;;;12.00;11.00;;;;;20.38;49.15;100493.64;110278;1251;21112;-39
2023/08/09 04:00:10;;;;;;;;;8.00;8.00;;;;;20.36;49.35;100490.69;110272;1250;20543;-40
2023/08/09 04:02:35;;;;;;;;;8.00;8.00;;;;;20.40;49.39;100493.92;110262;1265;18617;-40
2023/08/09 04:05:04;;;;;;;;;10.00;8.00;;;;;20.42;49.22;100497.36;110284;1251;19831;-41
2023/08/09 04:07:30;;;;;;;;;8.00;8.00;;;;;20.43;49.16;100498.05;110271;1250;20859;-40
2023/08/09 04:09:57;;;;;;;;;10.00;8.00;;;;;20.43;48.90;100503.06;110307;1249;20005;-40
2023/08/09 04:12:22;;;;;;;;;10.50;8.00;;;;;20.46;48.92;100501.42;110256;1257;22803;-39
2023/08/09 04:14:48;;;;;;;;;10.00;10.00;;;;;20.45;48.99;100503.83;110251;1251;19128;-39
2023/08/09 04:17:14;;;;;;;;;7.00;7.00;;;;;20.44;49.24;100510.90;110303;1265;18378;-40
2023/08/09 04:19:40;;;;;;;;;8.00;7.00;;;;;20.43;49.05;100509.48;110276;1249;19822;-40
2023/08/09 04:22:07;;;;;;;;;10.00;10.00;;;;;20.44;49.16;100510.73;110269;1251;20381;-39
2023/08/09 04:24:34;;;;;;;;;7.50;7.00;;;;;20.47;48.77;100513.02;110282;1265;18471;-40
2023/08/09 04:27:00;;;;;;;;;7.50;7.50;;;;;20.42;49.05;100511.11;110244;1265;22204;-39
2023/08/09 04:29:27;;;;;;;;;8.00;8.00;;;;;20.44;49.21;100513.39;110275;1265;22688;-39
2023/08/09 04:31:52;;;;;;;;;10.00;8.00;;;;;20.46;49.07;100512.37;110274;1257;22759;-40
2023/08/09 04:34:18;;;;;;;;;8.00;8.00;;;;;20.47;49.10;100516.23;110269;1265;21763;-40
2023/08/09 04:36:45;;;;;;;;;10.00;10.00;;;;;20.47;49.15;100511.82;110255;1265;22367;-40
2023/08/09 04:39:11;;;;;;;;;10.00;8.00;;;;;20.49;49.40;100509.91;110265;1265;18462;-39
2023/08/09 04:41:37;;;;;;;;;10.50;9.00;;;;;20.48;49.25;100515.58;110254;1251;19894;-39
2023/08/09 04:44:03;;;;;;;;;10.50;8.00;;;;;20.46;49.19;100515.47;110258;1265;20548;-40
2023/08/09 04:46:29;;;;;;;;;9.00;9.00;;;;;20.44;49.42;100516.12;110268;1265;18390;-39
2023/08/09 04:48:56;;;;;;;;;7.00;5.00;;;;;20.43;49.22;100513.62;110176;1251;19789;-37
2023/08/09 04:51:22;;;;;;;;;11.00;7.33;;;;;20.44;49.38;100514.86;110383;1251;20878;-38
2023/08/09 04:53:48;;;;;;;;;10.00;8.00;;;;;20.46;49.29;100515.63;110323;1257;19542;-38
2023/08/09 04:56:14;;;;;;;;;8.00;8.00;;;;;20.42;49.49;100516.88;110266;1251;19944;-39
2023/08/09 04:58:40;;;;;;;;;7.00;7.00;;;;;20.38;49.56;100514.36;110278;1251;20569;-39
2023/08/09 05:01:06;;;;;;;;;7.00;7.00;;;;;20.39;49.62;100521.45;110290;1251;19415;-40
2023/08/09 05:03:32;;;;;;;;;8.00;8.00;;;;;20.44;49.64;100524.17;110284;1265;18995;-40
2023/08/09 05:05:58;;;;;;;;;30.00;26.50;;;;;20.50;49.50;100524.60;110278;1257;20614;-40
2023/08/09 05:08:24;;;;;;;;;17.50;16.00;;;;;20.51;49.65;100531.73;110289;1249;18220;-39
2023/08/09 05:10:50;;;;;;;;;11.00;11.00;;;;;20.52;49.61;100530.53;110277;1265;18458;-39
2023/08/09 05:13:16;;;;;;;;;14.00;14.00;;;;;20.50;49.77;100529.98;110283;1249;20521;-41
2023/08/09 05:15:42;;;;;;;;;11.00;11.00;;;;;20.47;50.06;100532.66;110275;1265;18836;-39
2023/08/09 05:18:08;;;;;;;;;14.00;12.00;;;;;20.46;49.96;100536.04;110279;1251;19998;-39
2023/08/09 05:20:34;;;;;;;;;14.00;12.00;;;;;20.47;50.03;100536.41;110262;1265;21108;-41
2023/08/09 05:22:59;;;;;;;;;;;;;;;20.45;49.80;100536.30;110243;1250;19826;-40
2023/08/09 05:25:25;;;;;;;;;10.00;8.00;;;;;20.51;49.98;100538.59;110295;1251;19389;-40
2023/08/09 05:27:51;;;;;;;;;10.00;10.00;;;;;20.53;49.85;100543.15;110267;1250;20519;-39
2023/08/09 05:30:19;;;;;;;;;12.50;11.00;;;;;20.54;49.91;100551.77;110256;1250;18388;-40
2023/08/09 05:32:45;;;;;;;;;8.67;8.67;;;;;20.56;49.74;100559.70;110272;1257;22364;-39
2023/08/09 05:35:10;;;;;;;;;10.00;10.00;;;;;20.60;49.85;100564.16;110259;1249;21675;-39
2023/08/09 05:37:36;;;;;;;;;8.00;8.00;;;;;20.64;49.75;100562.73;110349;1257;19745;-40
2023/08/09 05:40:03;;;;;;;;;9.50;7.50;;;;;20.67;49.56;100565.52;110315;1251;19769;-39
2023/08/09 05:42:29;;;;;;;;;11.50;10.50;;;;;20.67;49.58;100566.23;110338;1265;19505;-39
2023/08/09 05:44:55;;;;;;;;;10.00;10.00;;;;;20.71;49.33;100566.38;110322;1265;18332;-39
2023/08/09 05:47:21;;;;;;;;;11.00;11.00;;;;;20.71;49.65;100563.82;110374;1251;19949;-39
2023/08/09 05:49:47;;;;;;;;;14.00;10.00;;;;;20.69;49.80;100566.60;110230;1265;19461;-39
2023/08/09 05:52:13;;;;;;;;;8.00;7.00;;;;;20.65;49.72;100563.50;110277;1265;19940;-39
2023/08/09 05:54:40;;;;;;;;;11.00;8.00;;;;;20.66;49.69;100565.19;110246;1251;20051;-40
2023/08/09 05:57:06;;;;;;;;;8.00;8.00;;;;;20.69;49.67;100570.73;110274;1265;20508;-41
2023/08/09 05:59:32;;;;;;;;;7.50;7.50;;;;;20.69;49.58;100573.45;110293;1251;22331;-38
2023/08/09 06:01:57;;;;;;;;;8.00;7.00;;;;;20.73;49.38;100575.52;110333;1251;19623;-39
2023/08/09 06:04:24;;;;;;;;;8.00;8.00;;;;;20.77;49.55;100579.16;110352;1265;20525;-39
2023/08/09 06:06:50;;;;;;;;;8.00;7.00;;;;;20.79;49.35;100581.07;110354;1265;18561;-39
2023/08/09 06:09:16;;;;;;;;;7.00;7.00;;;;;20.80;49.43;100583.55;110355;1249;20011;-39
2023/08/09 06:11:42;;;;;;;;;7.50;6.00;;;;;20.83;49.29;100587.41;110347;1265;19715;-40
2023/08/09 06:14:08;;;;;;;;;;;;;;;20.82;49.20;100587.63;110290;1265;22315;-39
2023/08/09 06:16:34;;;;;;;;;7.00;7.00;;;;;20.85;49.35;100590.12;110370;1265;19328;-39
2023/08/09 06:19:00;;;;;;;;;5.00;5.00;;;;;20.83;49.46;100592.52;110335;1265;19335;-39
2023/08/09 06:21:26;;;;;;;;;5.00;5.00;;;;;20.84;49.25;100591.32;110274;1265;18530;-39
2023/08/09 06:23:52;;;;;;;;;7.00;6.00;;;;;20.86;49.37;100590.66;110358;1265;18503;-39
2023/08/09 06:26:18;;;;;;;;;4.00;4.00;;;;;20.85;49.15;100590.50;110328;1251;22020;-38
2023/08/09 06:28:44;;;;;;;;;4.00;4.00;;;;;20.85;49.20;100592.20;110324;1265;23078;-39
2023/08/09 06:31:10;;;;;;;;;5.00;5.00;;;;;20.86;49.29;100593.17;110345;1257;19791;-39
2023/08/09 06:33:42;;;;;;;;;7.00;5.00;;;;;20.88;49.22;100592.57;110245;1251;20784;-39
2023/08/09 06:36:08;;;;;;;;;5.00;5.00;;;;;20.90;48.98;100597.63;110353;1265;22827;-39
2023/08/09 06:38:34;;;;;;;;;5.00;5.00;;;;;20.89;49.14;100599.15;110308;1265;18838;-39
2023/08/09 06:41:00;;;;;;;;;5.00;5.00;;;;;20.89;49.30;100602.05;110376;1257;20436;-39
2023/08/09 06:43:26;;;;;;;;;5.00;5.00;;;;;20.90;49.20;100603.18;110349;1265;18248;-38
2023/08/09 06:45:52;;;;;;;;;8.00;5.00;;;;;20.90;49.12;100606.30;110292;1266;22043;-38
2023/08/09 06:48:18;;;;;;;;;7.00;7.00;;;;;20.90;49.22;100607.86;110221;1265;20777;-38
2023/08/09 06:50:46;;;;;;;;;5.00;5.00;;;;;20.89;49.36;100608.58;110212;1265;19380;-38
2023/08/09 06:53:13;;;;;;;;;7.00;5.00;;;;;20.90;49.09;100611.19;110286;1266;19522;-39
2023/08/09 06:55:40;;;;;;;;;7.50;7.00;;;;;20.94;49.26;100609.23;110335;1250;20823;-39
2023/08/09 06:58:07;;;;;;;;;5.00;5.00;;;;;20.95;49.23;100606.23;110264;1265;18454;-40
2023/08/09 07:00:33;;;;;;;;;7.00;7.00;;;;;20.94;49.29;100605.90;110263;1265;19917;-40
2023/08/09 07:02:59;;;;;;;;;7.00;7.00;;;;;20.91;49.36;100603.08;110292;1265;20709;-39
2023/08/09 07:05:25;;;;;;;;;8.00;8.00;;;;;20.94;49.21;100602.73;110260;1249;18596;-40
2023/08/09 07:07:52;;;;;;;;;7.00;7.00;;;;;21.00;49.46;100606.70;110342;1265;18627;-40
2023/08/09 07:10:18;;;;;;;;;7.00;7.00;;;;;21.06;49.36;100606.98;110317;1265;19541;-38
2023/08/09 07:12:45;;;;;;;;;5.67;5.00;;;;;21.12;49.19;100607.13;110302;1265;18342;-40
2023/08/09 07:15:11;;;;;;;;;5.00;5.00;;;;;21.16;49.06;100603.25;110121;1266;19855;-39
2023/08/09 07:17:38;;;;;;;;;5.00;5.00;;;;;21.19;48.91;100603.02;110262;1265;20519;-39
2023/08/09 07:20:11;;;;;;;;;5.00;5.00;;;;;21.26;48.77;100597.52;110261;1265;18550;-40
2023/08/09 07:22:37;;;;;;;;;7.00;7.00;;;;;21.32;48.67;100597.18;110245;1265;21430;-39
2023/08/09 07:25:03;;;;;;;;;6.00;5.00;;;;;21.28;48.48;100594.91;110258;1249;18984;-40
2023/08/09 07:27:32;;;;;;;;;5.00;5.00;;;;;21.25;48.52;100594.48;110340;1251;19549;-39
2023/08/09 07:29:59;;;;;;;;;7.00;7.00;;;;;21.32;48.43;100592.28;110317;1265;19249;-39
2023/08/09 07:32:25;;;;;;;;;9.00;7.00;;;;;21.39;47.85;100594.55;110059;1265;19826;-39
2023/08/09 07:34:51;;;;;;;;;7.00;5.00;;;;;21.39;48.28;100595.75;110092;1265;18555;-39
2023/08/09 07:37:18;;;;;;;;;5.00;5.00;;;;;21.43;47.54;100599.00;110108;1251;18782;-40
2023/08/09 07:39:44;;;;;;;;;5.00;5.00;;;;;21.46;47.07;100598.06;110273;1265;20278;-40
2023/08/09 07:42:11;;;;;;;;;7.00;7.00;;;;;21.50;46.82;100601.76;110249;1265;22159;-39
2023/08/09 07:44:37;;;;;;;;;5.00;5.00;;;;;21.58;46.47;100604.12;110269;1265;18827;-39
2023/08/09 07:47:03;;;;;;;;;6.00;6.00;;;;;21.62;46.21;100604.86;110259;1265;20711;-39
2023/08/09 07:49:29;;;;;;;;;5.00;5.00;;;;;21.56;45.96;100602.23;110253;1265;18393;-40
2023/08/09 07:51:56;;;;;;;;;5.00;5.00;;;;;21.51;45.78;100604.52;110280;1250;18590;-40
2023/08/09 07:54:22;;;;;;;;;7.00;5.00;;;;;21.54;46.02;100597.32;110232;1250;19427;-39
2023/08/09 07:56:48;;;;;;;;;6.00;6.00;;;;;21.64;46.02;100597.98;110226;1265;19533;-39
2023/08/09 07:59:14;;;;;;;;;4.00;4.00;;;;;21.65;45.73;100603.77;110264;1265;18430;-39
2023/08/09 08:01:43;;;;;;;;;5.00;5.00;;;;;21.57;45.18;100609.90;110266;1257;19221;-39
2023/08/09 08:04:09;;;;;;;;;5.00;4.00;;;;;21.54;45.16;100608.77;110301;1265;21810;-39
2023/08/09 08:06:35;;;;;;;;;4.00;4.00;;;;;21.59;44.83;100612.51;110312;1266;22763;-39
2023/08/09 08:09:01;;;;;;;;;5.00;5.00;;;;;21.54;44.95;100614.54;110332;1265;19494;-38
2023/08/09 08:11:27;;;;;;;;;5.00;5.00;;;;;21.55;44.95;100618.02;110264;1249;18457;-38
2023/08/09 08:13:53;;;;;;;;;4.00;4.00;;;;;21.56;44.79;100618.25;110326;1257;23107;-39
2023/08/09 08:16:20;;;;;;;;;5.00;4.00;;;;;21.43;44.16;100612.67;110294;1265;22336;-39
2023/08/09 08:18:46;;;;;;;;;5.00;5.00;;;;;21.41;44.29;100615.68;110344;1265;18542;-37
2023/08/09 08:21:12;;;;;;;;;4.00;4.00;;;;;21.47;44.45;100612.88;110349;1265;20309;-38
2023/08/09 08:23:38;;;;;;;;;4.00;4.00;;;;;21.48;44.23;100614.35;110262;1265;21841;-39
2023/08/09 08:26:06;;;;;;;;;6.33;4.00;;;;;21.47;44.18;100612.45;110250;1265;18884;-39
2023/08/09 08:28:32;;;;;;;;;4.00;4.00;;;;;21.48;44.69;100617.13;110263;1249;18605;-39
2023/08/09 08:31:04;;;;;;;;;4.00;4.00;;;;;21.48;44.27;100620.84;110090;1266;22166;-39
2023/08/09 08:33:30;;;;;;;;;4.00;4.00;;;;;21.52;44.16;100628.50;110273;1265;19552;-38
2023/08/09 08:35:56;;;;;;;;;4.00;4.00;;;;;21.48;44.03;100633.36;110262;1265;20128;-40
2023/08/09 08:38:23;;;;;;;;;4.00;4.00;;;;;21.46;44.29;100640.90;110258;1257;19529;-40
2023/08/09 08:40:49;;;;;;;;;5.00;5.00;;;;;21.51;43.83;100638.92;110266;1265;19629;-40
2023/08/09 08:43:15;;;;;;;;;5.00;4.00;;;;;21.49;44.09;100634.30;110266;1265;22354;-41
2023/08/09 08:45:41;;;;;;;;;4.00;4.00;;;;;21.50;44.27;100635.10;110248;1251;20776;-40
2023/08/09 08:48:07;;;;;;;;;4.00;4.00;;;;;21.50;44.20;100636.52;110220;1251;19380;-38
2023/08/09 08:50:33;;;;;;;;;5.00;5.00;;;;;21.45;44.69;100641.02;110203;1251;22215;-39
2023/08/09 08:52:59;;;;;;;;;5.00;5.00;;;;;21.45;44.57;100644.50;110203;1265;21497;-38
2023/08/09 08:55:25;;;;;;;;;5.00;5.00;;;;;21.45;44.53;100642.86;110260;1265;18200;-39
2023/08/09 08:57:51;;;;;;;;;5.00;5.00;;;;;21.44;44.69;100643.80;110269;1265;18401;-39
2023/08/09 09:00:17;;;;;;;;;5.00;5.00;;;;;21.42;44.73;100642.44;110250;1251;19304;-38
2023/08/09 09:02:43;;;;;;;;;5.00;5.00;;;;;21.41;44.75;100642.88;110225;1265;18215;-39
2023/08/09 09:05:09;;;;;;;;;4.00;4.00;;;;;21.38;44.95;100641.69;110238;1250;20871;-39
2023/08/09 09:07:36;;;;;;;;;5.00;5.00;;;;;21.40;45.12;100651.16;110249;1265;19072;-39
2023/08/09 09:10:03;;;;;;;;;9.00;9.00;;;;;21.39;45.29;100653.02;110217;1265;18983;-41
2023/08/09 09:12:29;;;;;;;;;8.00;7.50;;;;;21.39;45.11;100656.84;110230;1265;22299;-40
2023/08/09 09:14:55;;;;;;;;;8.00;8.00;;;;;21.36;45.23;100660.77;110216;1251;20379;-39
2023/08/09 09:17:21;;;;;;;;;8.50;8.50;;;;;21.36;45.11;100663.00;110205;1265;20255;-39
2023/08/09 09:19:47;;;;;;;;;14.67;12.33;;;;;21.37;45.20;100660.48;110201;1251;19933;-39
2023/08/09 09:22:13;;;;;;;;;18.00;16.00;;;;;21.35;45.42;100666.05;110244;1251;22274;-39
2023/08/09 09:24:39;;;;;;;;;14.00;12.00;;;;;21.34;45.26;100663.33;110263;1249;22514;-38
2023/08/09 09:27:06;;;;;;;;;12.00;11.00;;;;;21.30;45.62;100672.55;110339;1265;20664;-39
2023/08/09 09:29:33;;;;;;;;;15.00;14.00;;;;;21.29;45.61;100672.17;110316;1250;20842;-40
2023/08/09 09:31:59;;;;;;;;;15.50;14.50;;;;;21.30;45.81;100673.15;110271;1257;19011;-40
2023/08/09 09:34:25;;;;;;;;;14.00;14.00;;;;;21.28;45.79;100673.48;110266;1257;22255;-39
2023/08/09 09:36:51;;;;;;;;;12.00;11.00;;;;;21.27;45.95;100675.88;110258;1251;22836;-40
2023/08/09 09:39:17;;;;;;;;;12.67;12.00;;;;;21.28;45.83;100673.81;110266;1250;22461;-39
2023/08/09 09:41:43;;;;;;;;;14.00;13.00;;;;;21.29;45.94;100674.84;110261;1266;22774;-39
2023/08/09 09:44:09;;;;;;;;;16.00;14.00;;;;;21.28;46.29;100674.19;110266;1251;20511;-40
2023/08/09 09:46:35;;;;;;;;;11.50;11.00;;;;;21.31;46.46;100678.92;110284;1265;22148;-40
2023/08/09 09:49:01;;;;;;;;;12.00;11.00;;;;;21.27;46.71;100674.89;110331;1257;20058;-38
2023/08/09 09:51:27;;;;;;;;;15.00;14.00;;;;;21.25;46.80;100682.41;110331;1251;20545;-38
2023/08/09 09:53:53;;;;;;;;;12.00;11.50;;;;;21.27;46.98;100680.13;110345;1257;22734;-39
2023/08/09 09:56:19;;;;;;;;;15.50;14.50;;;;;21.30;46.82;100678.70;110241;1265;23102;-38
2023/08/09 09:58:46;;;;;;;;;11.00;10.00;;;;;21.33;47.05;100678.64;110235;1265;19427;-38
2023/08/09 10:01:12;;;;;;;;;10.00;10.00;;;;;21.37;47.11;100681.64;110309;1257;22222;-38
2023/08/09 10:03:38;;;;;;;;;12.00;12.00;;;;;21.34;47.57;100680.77;110357;1265;19475;-39
2023/08/09 10:06:04;;;;;;;;;11.00;11.00;;;;;21.28;47.97;100681.00;110334;1257;19878;-39
2023/08/09 10:08:30;;;;;;;;;14.00;12.00;;;;;21.27;47.72;100679.31;110259;1251;19786;-40
2023/08/09 10:10:56;;;;;;;;;12.00;9.00;;;;;21.29;47.88;100683.77;110267;1265;18855;-40
2023/08/09 10:13:22;;;;;;;;;15.00;13.00;;;;;21.30;47.68;100679.73;110256;1251;20552;-40
2023/08/09 10:15:48;;;;;;;;;11.00;9.00;;;;;21.30;47.89;100677.56;110294;1250;19835;-39
2023/08/09 10:18:14;;;;;;;;;8.00;8.00;;;;;21.31;48.15;100676.14;110256;1265;22178;-40
2023/08/09 10:20:40;;;;;;;;;;;;;;;21.32;48.07;100675.16;110255;1265;19124;-40
2023/08/09 10:23:06;;;;;;;;;11.50;10.00;;;;;21.33;48.50;100674.61;110288;1251;19390;-40
2023/08/09 10:25:32;;;;;;;;;9.00;9.00;;;;;21.35;48.37;100672.64;110253;1251;19998;-41
2023/08/09 10:28:01;;;;;;;;;;;;;;;21.31;48.19;100672.16;110287;1265;19052;-39
2023/08/09 10:30:28;;;;;;;;;11.00;9.00;;;;;21.26;48.27;100665.36;110292;1265;18837;-40
2023/08/09 10:32:54;;;;;;;;;9.00;9.00;;;;;21.28;48.28;100669.12;110251;1265;20076;-41
2023/08/09 10:35:20;;;;;;;;;11.00;11.00;;;;;21.31;48.41;100666.98;110285;1250;20825;-39
2023/08/09 10:37:47;;;;;;;;;10.50;10.50;;;;;21.32;48.28;100669.22;110264;1251;19649;-39
2023/08/09 10:40:15;;;;;;;;;9.00;8.00;;;;;21.32;48.49;100666.00;110286;1251;20254;-42
2023/08/09 10:42:41;;;;;;;;;11.00;11.00;;;;;21.34;48.46;100661.27;110307;1250;22377;-39
2023/08/09 10:45:08;;;;;;;;;11.00;11.00;;;;;21.37;48.36;100664.69;110348;1249;20494;-39
2023/08/09 10:47:34;;;;;;;;;14.00;11.00;;;;;21.38;48.53;100664.68;110173;1251;20814;-38
2023/08/09 10:50:00;;;;;;;;;12.00;11.00;;;;;21.40;48.65;100663.04;110211;1251;20495;-37
2023/08/09 10:52:26;;;;;;;;;11.00;11.00;;;;;21.41;48.40;100666.10;110283;1265;18721;-39
2023/08/09 10:54:52;;;;;;;;;9.00;9.00;;;;;21.43;48.66;100668.98;110329;1265;18348;-39
2023/08/09 10:57:18;;;;;;;;;11.00;11.00;;;;;21.43;48.60;100664.18;110291;1265;19071;-38
2023/08/09 10:59:46;;;;;;;;;11.00;9.00;;;;;21.45;48.01;100665.98;110246;1265;23154;-38
2023/08/09 11:02:12;;;;;;;;;11.67;11.00;;;;;21.44;47.81;100665.48;110314;1265;18960;-38
2023/08/09 11:04:38;;;;;;;;;9.00;9.00;;;;;21.41;47.85;100667.18;110336;1265;19186;-37
2023/08/09 11:07:06;;;;;;;;;9.00;9.00;;;;;21.40;47.90;100663.92;110334;1257;21864;-37
2023/08/09 11:09:32;;;;;;;;;8.00;8.00;;;;;21.42;47.58;100666.52;110296;1250;20160;-38